Time;durP1;ratioP1;P1;durP2;ratioP2;P2;SDS_P1;SDS_P2;PMS_P1;PMS_P2;Temp;Humidity;BMP_temperature;BMP_pressure;BME280_temperature;BME280_humidity;BME280_pressure;Samples;Min_cycle;Max_cycle;Signal;HPM_P1;HPM_P2
2022/04/17 00:00:55;;;;;;;7.20;4.80;;;;;;;2.79;74.79;97696.04;107679;1271;54025;-76
2022/04/17 00:03:26;;;;;;;6.60;4.50;;;;;;;2.81;74.77;97696.52;107707;1271;48108;-75
2022/04/17 00:05:57;;;;;;;7.00;4.40;;;;;;;2.80;74.67;97694.14;107602;1271;78100;-76
2022/04/17 00:08:28;;;;;;;8.50;4.80;;;;;;;2.80;74.64;97688.10;107511;1271;95729;-76
2022/04/17 00:11:01;;;;;;;6.80;4.40;;;;;;;2.79;74.51;97689.76;107616;1271;57197;-76
2022/04/17 00:13:32;;;;;;;6.70;4.00;;;;;;;2.74;74.15;97690.33;107678;1271;35125;-76
2022/04/17 00:16:03;;;;;;;6.10;4.30;;;;;;;2.62;74.24;97686.91;107673;1271;54674;-76
2022/04/17 00:18:34;;;;;;;6.50;4.60;;;;;;;2.48;74.62;97687.25;107703;1271;44968;-76
2022/04/17 00:21:09;;;;;;;7.30;4.90;;;;;;;2.33;75.11;97687.29;107664;1271;37730;-76
2022/04/17 00:23:39;;;;;;;7.20;4.30;;;;;;;2.17;75.32;97690.18;107613;1271;41070;-75
2022/04/17 00:26:11;;;;;;;6.70;3.90;;;;;;;2.14;75.53;97689.74;107592;1271;38181;-76
2022/04/17 00:28:44;;;;;;;7.70;4.70;;;;;;;2.15;75.51;97690.39;107527;1271;43943;-75
2022/04/17 00:31:15;;;;;;;6.60;4.20;;;;;;;2.18;75.58;97687.65;107772;1269;42079;-75
2022/04/17 00:33:46;;;;;;;6.00;3.90;;;;;;;2.16;75.33;97684.92;107772;1271;45529;-75
2022/04/17 00:36:17;;;;;;;6.70;4.60;;;;;;;2.06;75.06;97686.46;107739;1271;52363;-75
2022/04/17 00:38:49;;;;;;;7.20;4.80;;;;;;;1.96;74.33;97686.08;107778;1270;50228;-75
2022/04/17 00:41:20;;;;;;;7.20;4.80;;;;;;;1.91;74.01;97686.77;107665;1271;50731;-75
2022/04/17 00:43:51;;;;;;;7.00;4.30;;;;;;;1.89;73.42;97681.90;107719;1269;40183;-75
2022/04/17 00:46:22;;;;;;;7.30;5.10;;;;;;;1.91;73.90;97679.73;107689;1271;56911;-75
2022/04/17 00:48:53;;;;;;;8.40;4.80;;;;;;;1.91;73.54;97684.32;107700;1269;41470;-75
2022/04/17 00:51:24;;;;;;;6.50;4.40;;;;;;;1.82;73.35;97685.16;107737;1270;42682;-76
2022/04/17 00:53:57;;;;;;;8.40;5.00;;;;;;;1.78;73.75;97683.84;107741;1270;36550;-75
2022/04/17 00:56:30;;;;;;;7.10;4.50;;;;;;;1.74;73.72;97683.78;107657;1269;42934;-75
2022/04/17 00:59:02;;;;;;;6.60;4.20;;;;;;;1.74;73.94;97682.98;107716;1270;39142;-75
2022/04/17 01:01:33;;;;;;;6.80;4.60;;;;;;;1.67;73.69;97683.71;107665;1271;36631;-75
2022/04/17 01:04:05;;;;;;;7.10;4.60;;;;;;;1.55;73.32;97675.29;107800;1271;37123;-75
2022/04/17 01:06:38;;;;;;;6.20;4.20;;;;;;;1.55;73.57;97676.61;107667;1271;35375;-75
2022/04/17 01:09:09;;;;;;;9.70;5.10;;;;;;;1.56;73.60;97676.19;107693;1271;37810;-75
2022/04/17 01:11:40;;;;;;;7.50;4.60;;;;;;;1.48;73.54;97668.23;107743;1270;36604;-75
2022/04/17 01:14:12;;;;;;;8.30;4.70;;;;;;;1.42;73.57;97665.92;107630;1271;33798;-75
2022/04/17 01:16:43;;;;;;;8.80;5.60;;;;;;;1.42;73.65;97664.72;107569;1271;44821;-75
2022/04/17 01:19:14;;;;;;;8.70;5.10;;;;;;;1.41;73.88;97658.66;107600;1271;46570;-75
2022/04/17 01:21:49;;;;;;;6.80;4.40;;;;;;;1.40;73.63;97660.11;107669;1271;49546;-75
2022/04/17 01:27:10;;;;;;;6.20;4.20;;;;;;;1.37;73.62;97662.43;107649;1270;51889;-75
2022/04/17 01:29:42;;;;;;;9.00;4.60;;;;;;;1.27;73.40;97661.05;107680;1270;44913;-75
2022/04/17 01:32:14;;;;;;;7.00;4.00;;;;;;;1.18;73.67;97661.52;107715;1271;43514;-75
2022/04/17 01:34:46;;;;;;;7.00;4.70;;;;;;;1.02;74.02;97666.20;107818;1270;35904;-75
2022/04/17 01:37:18;;;;;;;7.40;4.70;;;;;;;0.89;73.57;97664.36;107796;1271;48572;-75
2022/04/17 01:39:49;;;;;;;7.80;4.90;;;;;;;0.90;73.83;97666.34;107687;1271;48141;-75
2022/04/17 01:42:21;;;;;;;7.40;4.70;;;;;;;0.94;73.79;97665.95;107827;1271;53911;-75
2022/04/17 01:44:52;;;;;;;6.70;4.20;;;;;;;0.99;73.88;97663.90;107754;1269;38519;-75
2022/04/17 01:47:23;;;;;;;6.40;4.10;;;;;;;0.96;73.61;97661.03;107671;1270;33688;-75
2022/04/17 01:49:54;;;;;;;6.80;4.70;;;;;;;0.82;73.65;97658.33;107738;1269;43663;-75
2022/04/17 01:52:25;;;;;;;6.20;4.30;;;;;;;0.78;73.74;97656.29;107654;1271;83516;-75
2022/04/17 01:54:56;;;;;;;7.20;5.20;;;;;;;0.79;73.87;97657.19;107797;1270;57515;-75
2022/04/17 01:57:28;;;;;;;7.60;4.40;;;;;;;0.79;73.92;97650.88;107723;1271;44099;-75
2022/04/17 01:59:59;;;;;;;7.10;4.40;;;;;;;0.84;73.86;97645.25;107736;1271;39184;-75
2022/04/17 02:02:30;;;;;;;6.70;4.60;;;;;;;0.83;73.60;97647.33;107704;1270;37941;-75
2022/04/17 02:05:01;;;;;;;8.00;4.40;;;;;;;0.83;74.02;97647.77;107558;1271;54278;-75
2022/04/17 02:07:32;;;;;;;4.40;3.30;;;;;;;0.75;74.38;97641.58;107636;1271;44776;-75
2022/04/17 02:10:03;;;;;;;6.50;3.90;;;;;;;0.73;74.23;97643.90;107660;1271;40067;-75
2022/04/17 02:12:34;;;;;;;7.50;4.20;;;;;;;0.66;74.43;97641.59;107636;1271;37150;-75
2022/04/17 02:15:06;;;;;;;5.80;4.00;;;;;;;0.61;74.23;97645.70;107696;1271;42757;-75
2022/04/17 02:17:39;;;;;;;6.70;4.50;;;;;;;0.52;74.77;97644.45;107888;1271;34753;-75
2022/04/17 02:20:12;;;;;;;8.10;4.10;;;;;;;0.56;74.82;97640.68;107606;1271;50015;-75
2022/04/17 02:22:45;;;;;;;7.10;4.40;;;;;;;0.66;75.05;97640.58;107752;1271;45011;-75
2022/04/17 02:25:15;;;;;;;6.60;4.00;;;;;;;0.74;75.08;97644.38;107819;1269;33478;-75
2022/04/17 02:27:49;;;;;;;8.60;5.40;;;;;;;0.83;74.58;97645.52;107721;1271;36753;-75
2022/04/17 02:30:20;;;;;;;7.50;4.30;;;;;;;0.91;73.93;97643.89;107682;1269;52621;-75
2022/04/17 02:32:51;;;;;;;6.40;4.20;;;;;;;0.95;73.93;97639.20;107678;1271;70950;-75
2022/04/17 02:35:22;;;;;;;8.60;4.50;;;;;;;0.90;73.71;97641.40;107732;1269;48251;-75
2022/04/17 02:37:53;;;;;;;8.70;4.40;;;;;;;0.91;73.77;97641.96;107732;1271;42669;-75
2022/04/17 02:40:24;;;;;;;5.90;4.00;;;;;;;0.97;73.42;97638.42;107683;1271;71684;-75
2022/04/17 02:42:55;;;;;;;5.50;3.70;;;;;;;1.01;73.30;97635.80;107666;1271;51476;-75
2022/04/17 02:45:26;;;;;;;6.80;4.60;;;;;;;1.03;73.12;97630.23;107795;1270;42359;-75
2022/04/17 02:47:57;;;;;;;8.00;3.90;;;;;;;1.01;72.55;97630.39;107715;1270;53668;-75
2022/04/17 02:50:32;;;;;;;8.80;4.40;;;;;;;1.01;72.31;97628.90;107738;1271;45463;-75
2022/04/17 02:53:03;;;;;;;6.10;4.20;;;;;;;1.03;72.46;97633.13;107692;1271;49668;-75
2022/04/17 02:55:34;;;;;;;9.50;6.20;;;;;;;0.88;72.94;97630.65;107752;1271;42997;-75
2022/04/17 02:58:05;;;;;;;11.90;6.90;;;;;;;0.73;73.73;97629.92;107700;1271;37571;-75
2022/04/17 03:05:36;;;;;;;11.20;7.30;;;;;;;0.71;74.01;97632.44;107692;1270;41510;-75
2022/04/17 03:06:20;;;;;;;9.00;5.80;;;;;;;0.80;74.04;97632.33;107792;1269;43215;-75
2022/04/17 03:08:51;;;;;;;10.60;6.60;;;;;;;0.82;73.89;97629.33;107760;1271;42558;-75
2022/04/17 03:11:22;;;;;;;9.90;6.80;;;;;;;0.87;73.87;97632.59;107748;1271;38148;-75
2022/04/17 03:13:53;;;;;;;10.80;7.80;;;;;;;0.95;74.04;97635.67;107665;1271;41276;-75
2022/04/17 03:16:23;;;;;;;14.50;8.00;;;;;;;1.01;73.69;97633.08;107662;1271;50321;-75
2022/04/17 03:19:02;;;;;;;10.70;7.20;;;;;;;1.07;73.69;97636.47;107647;1271;45229;-75
2022/04/17 03:21:33;;;;;;;11.60;7.00;;;;;;;1.11;73.42;97638.51;106003;1269;2316855;-75
2022/04/17 03:24:05;;;;;;;11.00;6.90;;;;;;;1.14;73.57;97636.21;107636;1271;47282;-75
2022/04/17 03:26:41;;;;;;;12.50;6.70;;;;;;;1.15;73.55;97635.61;107701;1271;39004;-75
2022/04/17 03:29:12;;;;;;;10.60;6.90;;;;;;;1.10;73.30;97638.38;107626;1271;87958;-75
2022/04/17 03:31:44;;;;;;;10.50;6.40;;;;;;;1.05;72.91;97641.41;107721;1271;36497;-75
2022/04/17 03:34:15;;;;;;;8.90;6.30;;;;;;;1.05;72.76;97641.12;107841;1269;41039;-75
2022/04/17 03:36:47;;;;;;;8.50;5.70;;;;;;;1.09;72.63;97642.79;107760;1270;34105;-75
2022/04/17 03:39:18;;;;;;;7.80;5.50;;;;;;;1.15;72.89;97644.05;107794;1269;42002;-75
2022/04/17 03:41:48;;;;;;;8.30;5.30;;;;;;;1.14;72.06;97645.17;107769;1271;35839;-76
2022/04/17 03:44:20;;;;;;;7.70;5.60;;;;;;;1.14;71.80;97641.27;107773;1271;40100;-75
2022/04/17 03:46:51;;;;;;;9.50;6.90;;;;;;;1.14;71.83;97648.34;107659;1271;38778;-76
2022/04/17 03:49:22;;;;;;;10.70;6.00;;;;;;;1.16;71.90;97654.21;107628;1271;35458;-76
2022/04/17 03:51:55;;;;;;;9.20;5.40;;;;;;;1.20;72.27;97655.34;107665;1271;40089;-75
2022/04/17 03:54:26;;;;;;;10.10;6.40;;;;;;;1.22;72.21;97655.48;107606;1271;50598;-76
2022/04/17 03:56:57;;;;;;;10.00;6.00;;;;;;;1.25;72.13;97649.58;107623;1271;87867;-76
2022/04/17 03:59:28;;;;;;;10.40;6.90;;;;;;;1.27;72.01;97652.95;107689;1268;33082;-76
2022/04/17 04:01:59;;;;;;;11.30;7.00;;;;;;;1.29;72.36;97653.39;107626;1271;37413;-76
2022/04/17 04:04:30;;;;;;;12.30;7.20;;;;;;;1.33;72.35;97654.90;107679;1271;45386;-75
2022/04/17 04:07:01;;;;;;;12.50;7.50;;;;;;;1.35;72.30;97653.45;107583;1271;59011;-75
2022/04/17 04:09:32;;;;;;;16.30;11.80;;;;;;;1.35;72.53;97652.77;107698;1271;50544;-75
2022/04/17 04:12:05;;;;;;;14.20;8.70;;;;;;;1.35;72.76;97654.54;107723;1268;33767;-75
2022/04/17 04:14:36;;;;;;;14.20;9.40;;;;;;;1.31;72.94;97656.21;107634;1271;62919;-76
2022/04/17 04:17:09;;;;;;;14.20;9.40;;;;;;;1.37;72.93;97657.00;107659;1271;36388;-78
2022/04/17 04:19:39;;;;;;;12.70;8.50;;;;;;;1.41;72.50;97654.73;107603;1271;35504;-76
2022/04/17 04:22:10;;;;;;;12.60;7.90;;;;;;;1.48;72.43;97652.80;107579;1270;37481;-75
2022/04/17 04:24:41;;;;;;;14.40;8.50;;;;;;;1.57;72.24;97653.16;107661;1270;47064;-76
2022/04/17 04:30:01;;;;;;;15.80;8.90;;;;;;;1.80;72.13;97654.13;107659;1269;43207;-76
2022/04/17 04:32:32;;;;;;;13.40;9.50;;;;;;;2.27;72.62;97653.86;107642;1271;34777;-76
2022/04/17 04:35:03;;;;;;;15.70;9.80;;;;;;;2.65;72.05;97653.52;107555;1271;53023;-76
2022/04/17 04:37:34;;;;;;;14.40;10.50;;;;;;;3.73;71.83;97650.86;107554;1269;67366;-76
2022/04/17 04:40:08;;;;;;;14.60;9.80;;;;;;;4.75;69.70;97649.54;106180;1270;2010191;-76
2022/04/17 04:42:39;;;;;;;14.50;10.60;;;;;;;5.46;68.70;97650.20;107740;1269;55530;-76
2022/04/17 04:48:01;;;;;;;14.70;11.40;;;;;;;7.14;64.54;97643.89;107716;1269;40936;-76
2022/04/17 04:50:32;;;;;;;15.90;11.60;;;;;;;7.82;63.90;97642.05;107684;1269;61234;-77
2022/04/17 04:53:01;;;;;;;;;;;;;;;8.77;62.03;97643.64;107603;1269;99241;-77
2022/04/17 04:55:33;;;;;;;13.50;10.60;;;;;;;9.57;60.56;97646.48;107698;1269;46891;-77
2022/04/17 04:58:04;;;;;;;14.00;11.00;;;;;;;10.16;58.53;97633.89;107663;1269;36880;-77
2022/04/17 05:00:35;;;;;;;15.30;11.20;;;;;;;9.56;56.30;97643.26;107692;1268;44041;-77
2022/04/17 05:03:07;;;;;;;17.20;11.50;;;;;;;8.79;56.45;97639.65;107529;1269;48234;-77
2022/04/17 05:05:38;;;;;;;14.20;11.30;;;;;;;8.84;57.80;97641.42;107580;1269;38751;-77
2022/04/17 05:08:10;;;;;;;18.40;12.20;;;;;;;8.90;55.94;97645.20;107604;1269;33039;-77
2022/04/17 05:10:41;;;;;;;16.10;12.20;;;;;;;8.37;56.94;97645.19;107647;1269;35483;-77
2022/04/17 05:13:12;;;;;;;18.00;13.10;;;;;;;9.04;56.41;97642.15;107562;1269;44269;-77
2022/04/17 05:15:43;;;;;;;18.50;12.80;;;;;;;9.92;56.31;97644.85;107674;1270;36645;-77
2022/04/17 05:18:15;;;;;;;16.80;12.40;;;;;;;11.44;56.17;97639.04;106300;1269;1764542;-77
2022/04/17 05:20:46;;;;;;;16.20;11.90;;;;;;;12.51;53.02;97635.14;107403;1268;45323;-78
2022/04/17 05:23:19;;;;;;;15.30;11.70;;;;;;;13.03;50.57;97632.10;107690;1268;36404;-78
2022/04/17 05:25:56;;;;;;;14.50;11.60;;;;;;;13.38;49.44;97635.52;107507;1268;47583;-78
2022/04/17 05:28:29;;;;;;;17.30;11.50;;;;;;;13.52;46.95;97636.65;108974;1268;78353;-79
2022/04/17 05:31:01;;;;;;;14.70;11.30;;;;;;;13.65;47.36;97637.66;106125;1269;1945611;-80
2022/04/17 05:33:32;;;;;;;13.50;10.20;;;;;;;14.27;47.57;97634.69;107687;1268;73578;-79
2022/04/17 05:36:04;;;;;;;13.80;10.00;;;;;;;15.47;47.97;97628.82;105802;1268;2474442;-79
2022/04/17 05:38:35;;;;;;;13.00;10.00;;;;;;;16.42;47.04;97635.04;107623;1269;122163;-80
2022/04/17 05:41:10;;;;;;;11.60;9.70;;;;;;;17.46;46.83;97634.02;107739;1268;72853;-80
2022/04/17 05:43:44;;;;;;;12.70;10.40;;;;;;;17.53;39.74;97630.02;107678;1268;95179;-78
2022/04/17 05:46:15;;;;;;;14.80;10.40;;;;;;;17.29;43.00;97633.33;107743;1269;75173;-77
2022/04/17 05:48:49;;;;;;;12.30;9.80;;;;;;;18.12;43.49;97636.45;107704;1269;74567;-79
2022/04/17 05:51:20;;;;;;;11.90;9.70;;;;;;;18.49;38.58;97634.73;106069;1269;2008509;-79
2022/04/17 05:53:52;;;;;;;12.20;9.90;;;;;;;18.36;38.32;97636.43;107753;1269;69297;-76
2022/04/17 05:56:23;;;;;;;11.20;8.70;;;;;;;18.08;38.05;97636.39;107696;1269;78172;-76
2022/04/17 05:58:55;;;;;;;12.40;9.10;;;;;;;18.34;39.70;97636.63;107636;1269;143505;-78
2022/04/17 06:01:26;;;;;;;11.50;9.40;;;;;;;19.24;39.35;97632.58;107706;1269;70504;-78
2022/04/17 06:03:58;;;;;;;11.40;9.60;;;;;;;19.31;35.52;97633.70;107811;1269;77375;-77
2022/04/17 06:06:29;;;;;;;10.80;9.30;;;;;;;18.75;36.38;97637.96;106490;1267;1639153;-78
2022/04/17 06:09:02;;;;;;;11.40;9.30;;;;;;;19.23;37.05;97638.30;107484;1268;169869;-79
2022/04/17 06:11:35;;;;;;;10.70;8.90;;;;;;;19.77;37.82;97642.63;107606;1268;80817;-78
2022/04/17 06:14:08;;;;;;;11.20;8.70;;;;;;;19.39;37.16;97640.20;107499;1268;183542;-77
2022/04/17 06:16:42;;;;;;;11.40;9.00;;;;;;;19.47;37.93;97639.02;107647;1269;73947;-78
2022/04/17 06:19:17;;;;;;;12.10;8.80;;;;;;;20.54;37.59;97635.32;107718;1268;70252;-78
2022/04/17 06:21:49;;;;;;;10.50;8.60;;;;;;;21.20;35.61;97632.68;107770;1269;33691;-79
2022/04/17 06:24:20;;;;;;;10.20;8.70;;;;;;;21.68;35.22;97637.27;107703;1269;34404;-78
2022/04/17 06:26:53;;;;;;;11.30;8.80;;;;;;;21.14;31.49;97641.52;107729;1268;49668;-78
2022/04/17 06:29:27;;;;;;;10.00;8.90;;;;;;;20.45;32.66;97639.95;107729;1268;44909;-79
2022/04/17 06:31:58;;;;;;;10.60;8.60;;;;;;;20.70;34.44;97639.13;107652;1269;52638;-78
2022/04/17 06:34:31;;;;;;;10.30;8.70;;;;;;;19.62;33.25;97638.60;107715;1269;38868;-80
2022/04/17 06:37:05;;;;;;;9.80;8.00;;;;;;;17.08;33.39;97643.34;107475;1269;48861;-80
2022/04/17 06:39:38;;;;;;;11.80;8.90;;;;;;;16.03;35.40;97648.11;107673;1269;61913;-80
2022/04/17 06:42:09;;;;;;;11.30;8.80;;;;;;;14.24;35.36;97651.25;107677;1269;47282;-80
2022/04/17 06:44:42;;;;;;;10.40;8.50;;;;;;;13.19;38.89;97651.98;107662;1267;65595;-78
2022/04/17 06:47:15;;;;;;;10.80;8.60;;;;;;;15.60;40.22;97646.76;107641;1268;42954;-78
2022/04/17 06:49:47;;;;;;;9.70;8.50;;;;;;;18.22;36.64;97644.10;107700;1269;47489;-78
2022/04/17 06:52:42;;;;;;;10.50;8.90;;;;;;;19.66;35.09;97635.41;107744;1269;39763;-78
2022/04/17 06:55:14;;;;;;;8.80;7.90;;;;;;;20.54;34.55;97636.11;107648;1269;68193;-79
2022/04/17 06:57:51;;;;;;;10.00;7.70;;;;;;;21.65;34.23;97632.34;107621;1269;78309;-78
2022/04/17 07:00:22;;;;;;;11.20;7.70;;;;;;;22.77;33.69;97635.89;107673;1268;60811;-79
2022/04/17 07:02:53;;;;;;;8.80;6.80;;;;;;;23.75;32.96;97633.80;107326;1269;46049;-78
2022/04/17 07:05:25;;;;;;;8.20;6.50;;;;;;;24.47;32.05;97636.58;107735;1269;62083;-78
2022/04/17 07:08:03;;;;;;;7.30;6.00;;;;;;;25.28;31.60;97633.98;107595;1268;35376;-80
2022/04/17 07:10:37;;;;;;;7.70;5.90;;;;;;;26.02;31.10;97636.42;107582;1269;57372;-79
2022/04/17 07:13:11;;;;;;;6.20;5.50;;;;;;;26.54;30.03;97634.00;107704;1269;43194;-79
2022/04/17 07:15:42;;;;;;;7.70;6.10;;;;;;;26.35;29.20;97636.61;107735;1269;55731;-80
2022/04/17 07:18:15;;;;;;;7.00;5.80;;;;;;;25.36;28.51;97641.15;107616;1269;34928;-79
2022/04/17 07:20:49;;;;;;;8.50;5.80;;;;;;;23.43;28.97;97644.15;107684;1269;43319;-79
2022/04/17 07:23:20;;;;;;;7.60;6.00;;;;;;;21.72;30.47;97647.56;107712;1268;48420;-78
2022/04/17 07:25:53;;;;;;;9.20;5.30;;;;;;;22.37;30.65;97648.48;107768;1269;56665;-78
2022/04/17 07:28:24;;;;;;;6.90;5.00;;;;;;;23.26;29.51;97643.57;107619;1268;39974;-79
2022/04/17 07:30:55;;;;;;;6.80;5.20;;;;;;;23.72;28.92;97639.77;107631;1269;46663;-79
2022/04/17 07:33:26;;;;;;;6.00;5.00;;;;;;;23.68;28.59;97647.23;107653;1269;51213;-79
2022/04/17 07:35:57;;;;;;;5.20;4.40;;;;;;;24.29;27.78;97640.38;106633;1269;1536685;-78
2022/04/17 07:38:30;;;;;;;5.80;4.50;;;;;;;23.07;25.45;97641.39;107737;1269;33002;-79
2022/04/17 07:41:01;;;;;;;5.80;4.60;;;;;;;19.82;27.23;97643.43;107789;1269;42375;-79
2022/04/17 07:43:32;;;;;;;4.70;4.10;;;;;;;17.56;29.00;97648.72;107647;1269;38739;-81
2022/04/17 07:46:04;;;;;;;7.30;4.10;;;;;;;16.25;30.29;97644.93;107653;1268;35808;-80
2022/04/17 07:48:35;;;;;;;6.00;4.30;;;;;;;15.55;31.67;97643.70;107712;1268;40527;-81
2022/04/17 07:51:06;;;;;;;5.60;4.60;;;;;;;17.56;31.79;97641.35;107707;1269;38242;-81
2022/04/17 07:53:39;;;;;;;4.70;4.20;;;;;;;19.23;28.54;97635.20;107755;1269;34766;-82
2022/04/17 07:56:11;;;;;;;7.80;5.40;;;;;;;19.33;27.76;97628.11;107987;1269;45609;-81
2022/04/17 07:58:42;;;;;;;6.10;4.80;;;;;;;17.86;28.59;97631.61;107789;1269;57036;-78
2022/04/17 08:01:15;;;;;;;5.50;4.20;;;;;;;15.81;31.24;97633.30;107696;1269;44728;-77
2022/04/17 08:03:50;;;;;;;7.10;4.40;;;;;;;14.80;32.62;97635.45;107638;1268;33086;-80
2022/04/17 08:06:21;;;;;;;5.10;3.90;;;;;;;13.80;33.02;97637.42;107675;1268;32755;-79
2022/04/17 08:08:52;;;;;;;5.30;3.80;;;;;;;12.91;33.65;97637.47;107672;1268;44185;-80
2022/04/17 08:11:23;;;;;;;5.90;4.10;;;;;;;11.98;34.53;97642.27;107693;1269;34989;-79
2022/04/17 08:13:54;;;;;;;8.20;6.30;;;;;;;11.36;35.28;97645.02;107682;1269;36848;-79
2022/04/17 08:16:27;;;;;;;9.60;7.80;;;;;;;10.77;36.27;97641.92;107651;1269;37977;-79
2022/04/17 08:18:58;;;;;;;5.10;4.00;;;;;;;10.44;36.93;97642.76;107912;1268;28442;-79
2022/04/17 08:21:29;;;;;;;6.30;3.70;;;;;;;10.26;37.49;97645.77;107674;1267;50017;-80
2022/04/17 08:24:01;;;;;;;5.90;3.80;;;;;;;10.05;38.02;97642.19;107611;1269;56177;-80
2022/04/17 08:26:33;;;;;;;4.10;3.30;;;;;;;9.93;38.48;97643.59;107642;1269;42357;-81
2022/04/17 08:29:04;;;;;;;5.60;4.40;;;;;;;9.81;38.33;97636.46;107593;1267;46220;-80
2022/04/17 08:31:39;;;;;;;4.50;3.80;;;;;;;9.62;38.54;97641.22;107607;1269;84246;-79
2022/04/17 08:34:10;;;;;;;4.70;3.00;;;;;;;9.66;39.19;97640.33;107649;1267;51918;-80
2022/04/17 08:36:44;;;;;;;4.20;2.70;;;;;;;9.72;38.82;97642.52;107699;1267;34076;-81
2022/04/17 08:39:18;;;;;;;5.10;3.00;;;;;;;9.72;38.92;97634.52;107675;1269;56221;-80
2022/04/17 08:41:54;;;;;;;4.10;2.90;;;;;;;9.60;39.16;97629.92;107855;1269;39455;-80
2022/04/17 08:44:26;;;;;;;5.30;2.70;;;;;;;9.55;39.82;97627.20;107680;1269;37213;-80
2022/04/17 08:47:00;;;;;;;4.90;2.60;;;;;;;9.64;40.23;97625.73;107591;1269;60940;-80
2022/04/17 08:49:32;;;;;;;3.00;2.60;;;;;;;11.32;40.14;97619.25;107645;1267;45061;-81
2022/04/17 08:52:15;;;;;;;3.70;2.70;;;;;;;11.72;38.30;97615.13;107781;1267;46476;-81
2022/04/17 08:54:47;;;;;;;3.10;2.10;;;;;;;11.13;37.89;97616.27;107723;1269;41048;-81
2022/04/17 08:57:19;;;;;;;3.60;2.20;;;;;;;10.53;37.70;97615.21;107694;1267;50581;-81
2022/04/17 08:59:50;;;;;;;2.30;1.80;;;;;;;10.22;37.59;97611.70;107694;1267;34485;-81
2022/04/17 09:02:23;;;;;;;3.40;1.70;;;;;;;10.20;38.02;97611.09;107680;1267;43043;-80
2022/04/17 09:04:54;;;;;;;2.20;1.80;;;;;;;10.35;38.27;97610.81;107677;1269;87017;-80
2022/04/17 09:07:40;;;;;;;2.50;1.90;;;;;;;10.33;38.63;97608.15;107652;1269;44881;-81
2022/04/17 09:10:12;;;;;;;2.10;1.90;;;;;;;10.23;38.55;97612.98;107812;1267;59906;-82
2022/04/17 09:12:47;;;;;;;2.60;2.10;;;;;;;10.07;38.09;97609.52;107600;1269;43533;-81
2022/04/17 09:15:23;;;;;;;2.50;1.80;;;;;;;9.64;38.67;97609.85;107734;1269;70561;-81
2022/04/17 09:17:54;;;;;;;9.20;6.60;;;;;;;9.33;38.57;97608.42;107630;1269;46825;-81
2022/04/17 09:20:29;;;;;;;5.20;3.20;;;;;;;8.99;38.85;97607.74;105749;1269;2481491;-82
2022/04/17 09:23:01;;;;;;;5.30;3.20;;;;;;;8.94;39.31;97607.77;107662;1269;36010;-82
2022/04/17 09:25:34;;;;;;;5.70;3.60;;;;;;;8.91;39.41;97600.66;107611;1270;59748;-82
2022/04/17 09:28:12;;;;;;;6.20;3.90;;;;;;;8.80;39.82;97595.20;107641;1269;39613;-82
2022/04/17 09:30:45;;;;;;;3.60;2.50;;;;;;;8.66;40.11;97591.08;106537;1269;1465139;-82
2022/04/17 09:33:20;;;;;;;2.20;2.00;;;;;;;8.50;39.91;97593.95;107775;1269;46215;-81
2022/04/17 09:35:59;;;;;;;4.40;2.50;;;;;;;8.31;40.28;97597.15;106737;1269;1199411;-80
2022/04/17 09:38:34;;;;;;;3.90;2.30;;;;;;;8.28;40.82;97593.18;107638;1269;45409;-82
2022/04/17 09:41:09;;;;;;;6.00;4.00;;;;;;;8.28;41.09;97587.08;106542;1269;1562062;-82
2022/04/17 09:43:42;;;;;;;4.30;3.10;;;;;;;8.33;41.17;97579.54;107619;1269;69545;-82
2022/04/17 09:46:17;;;;;;;5.50;3.60;;;;;;;8.36;41.26;97578.45;107695;1270;68424;-82
2022/04/17 09:48:49;;;;;;;3.20;2.70;;;;;;;8.39;41.45;97576.90;107697;1269;42406;-82
2022/04/17 09:51:24;;;;;;;3.70;2.60;;;;;;;8.51;41.63;97573.81;107695;1269;60895;-81
2022/04/17 09:54:03;;;;;;;2.60;1.70;;;;;;;8.63;41.37;97573.80;106256;1270;1968058;-82
2022/04/17 09:56:39;;;;;;;4.80;2.10;;;;;;;8.57;41.00;97570.53;107547;1268;72932;-82
2022/04/17 09:59:22;;;;;;;2.60;2.00;;;;;;;8.77;40.95;97571.45;107541;1268;76554;-81
2022/04/17 10:01:56;;;;;;;2.90;2.20;;;;;;;9.39;40.73;97564.92;106442;1269;1933084;-79
2022/04/17 10:04:29;;;;;;;2.80;1.80;;;;;;;9.75;40.34;97560.77;107541;1268;118882;-80
2022/04/17 10:07:04;;;;;;;2.70;1.90;;;;;;;9.36;38.67;97561.03;107622;1270;146378;-80
2022/04/17 10:09:36;;;;;;;2.60;1.90;;;;;;;9.06;39.55;97565.25;105671;1271;2038008;-81
2022/04/17 10:12:09;;;;;;;2.80;2.50;;;;;;;8.75;40.33;97562.81;105605;1269;1968535;-80
2022/04/17 10:14:43;;;;;;;4.80;3.30;;;;;;;8.55;40.29;97559.89;105675;1268;1897083;-80
2022/04/17 10:17:22;;;;;;;8.30;6.40;;;;;;;8.34;40.46;97559.64;106897;1268;303271;-80
2022/04/17 10:19:59;;;;;;;8.00;6.00;;;;;;;8.17;40.46;97555.39;103460;1269;2027614;-79
2022/04/17 10:22:36;;;;;;;39.20;27.00;;;;;;;8.09;40.96;97554.52;104453;1268;1747047;-79
2022/04/17 10:25:13;;;;;;;7.80;5.40;;;;;;;7.97;41.02;97553.84;107699;1269;83356;-79
2022/04/17 10:27:50;;;;;;;5.30;2.60;;;;;;;7.91;41.48;97550.20;107624;1268;69959;-79
2022/04/17 10:30:34;;;;;;;4.00;2.80;;;;;;;8.12;41.98;97546.66;107617;1269;77236;-79
2022/04/17 10:33:30;;;;;;;3.90;2.30;;;;;;;8.41;41.62;97545.39;107650;1269;74913;-79
2022/04/17 10:36:35;;;;;;;5.90;4.90;;;;;;;8.54;40.84;97542.46;107663;1270;72171;-79
2022/04/17 10:39:14;;;;;;;4.50;3.40;;;;;;;8.84;41.42;97538.23;107521;1270;59579;-78
2022/04/17 10:41:46;;;;;;;3.40;2.50;;;;;;;9.14;41.15;97538.80;107745;1269;60016;-79
2022/04/17 10:44:18;;;;;;;4.60;4.10;;;;;;;9.16;40.64;97541.36;107591;1268;61160;-78
2022/04/17 10:46:51;;;;;;;3.20;2.60;;;;;;;9.07;40.42;97539.98;107695;1268;86480;-77
2022/04/17 10:49:28;;;;;;;13.60;8.10;;;;;;;9.01;41.06;97536.88;107698;1269;70593;-78
2022/04/17 10:52:01;;;;;;;3.00;2.50;;;;;;;8.94;41.04;97533.63;107543;1269;71745;-78
2022/04/17 10:54:52;;;;;;;3.90;2.20;;;;;;;8.98;40.96;97530.48;105913;1268;2226409;-79
2022/04/17 10:57:27;;;;;;;3.50;2.40;;;;;;;8.94;41.28;97530.55;107657;1268;57613;-77
2022/04/17 11:00:28;;;;;;;4.70;3.80;;;;;;;9.02;41.34;97523.26;107580;1269;81180;-78
2022/04/17 11:03:09;;;;;;;10.70;6.30;;;;;;;9.00;41.13;97523.44;107583;1269;76326;-78
2022/04/17 11:08:28;;;;;;;3.40;2.40;;;;;;;9.31;40.80;97517.58;107450;1271;72009;-78
2022/04/17 11:11:07;;;;;;;5.90;4.30;;;;;;;9.45;41.27;97516.40;106368;1268;1721228;-79
2022/04/17 11:13:59;;;;;;;4.00;2.60;;;;;;;10.10;41.57;97506.16;107645;1269;61853;-79
2022/04/17 11:16:39;;;;;;;3.90;2.80;;;;;;;10.74;40.76;97502.23;106359;1270;1852750;-79
2022/04/17 11:19:15;;;;;;;2.80;2.00;;;;;;;11.14;39.77;97496.80;107610;1269;61053;-80
2022/04/17 11:21:50;;;;;;;3.10;2.30;;;;;;;10.75;37.70;97487.55;106418;1269;1730664;-80
2022/04/17 11:24:30;;;;;;;4.20;2.60;;;;;;;10.09;37.99;97485.23;107604;1270;58559;-79
2022/04/17 11:27:14;;;;;;;5.20;3.70;;;;;;;9.51;39.45;97481.53;106712;1270;1227612;-79
2022/04/17 11:29:51;;;;;;;3.00;2.40;;;;;;;9.33;40.11;97481.94;107643;1267;73698;-79
2022/04/17 11:32:56;;;;;;;5.00;3.10;;;;;;;9.29;39.93;97484.53;107519;1269;105059;-78
2022/04/17 11:35:41;;;;;;;3.70;2.70;;;;;;;9.13;40.42;97484.39;107562;1270;104061;-78
2022/04/17 11:38:22;;;;;;;5.90;3.30;;;;;;;9.17;40.09;97480.05;107574;1268;152635;-79
2022/04/17 11:40:59;;;;;;;2.60;1.80;;;;;;;9.15;40.26;97474.52;107477;1270;59995;-78
2022/04/17 11:43:30;;;;;;;3.10;2.50;;;;;;;9.19;40.22;97473.20;107626;1270;57330;-79
2022/04/17 11:46:07;;;;;;;2.80;2.50;;;;;;;9.27;40.09;97468.40;107651;1269;59635;-78
2022/04/17 11:48:40;;;;;;;2.60;1.90;;;;;;;9.25;39.31;97469.82;107521;1270;71777;-79
2022/04/17 11:51:22;;;;;;;2.80;1.90;;;;;;;8.78;38.93;97467.52;107602;1269;69397;-79
2022/04/17 11:53:59;;;;;;;3.60;2.20;;;;;;;8.51;40.20;97469.08;107579;1269;62547;-79
2022/04/17 11:57:00;;;;;;;2.90;1.90;;;;;;;8.72;40.60;97468.51;107503;1269;147582;-79
2022/04/17 11:59:44;;;;;;;3.50;1.90;;;;;;;8.98;40.82;97468.30;106100;1269;2065487;-78
2022/04/17 12:02:19;;;;;;;3.20;1.70;;;;;;;9.12;40.60;97463.70;107527;1268;54327;-79
2022/04/17 12:04:55;;;;;;;2.60;1.90;;;;;;;9.29;40.62;97462.52;107609;1270;80927;-79
2022/04/17 12:07:30;;;;;;;2.10;1.50;;;;;;;9.51;40.72;97455.33;107561;1270;86988;-79
2022/04/17 12:10:12;;;;;;;3.00;2.10;;;;;;;9.80;40.42;97451.92;107582;1270;79039;-78